createdAt,value
2023-02-22T00:00:40.584Z,7.47
2023-02-22T00:03:08.109Z,7.15
2023-02-22T00:05:35.242Z,7.70
2023-02-22T00:08:02.406Z,6.90
2023-02-22T00:10:29.462Z,7.80
2023-02-22T00:12:56.598Z,8.32
2023-02-22T00:15:27.261Z,8.48
2023-02-22T00:17:55.206Z,8.48
2023-02-22T00:20:23.390Z,8.95
2023-02-22T00:22:51.748Z,6.68
2023-02-22T00:25:20.130Z,6.97
2023-02-22T00:27:53.748Z,7.82
2023-02-22T00:30:22.401Z,7.40
2023-02-22T00:32:50.139Z,7.32
2023-02-22T00:35:18.498Z,7.47
2023-02-22T00:37:48.415Z,7.20
2023-02-22T00:40:17.262Z,6.53
2023-02-22T00:42:44.368Z,6.25
2023-02-22T00:45:11.485Z,6.97
2023-02-22T00:47:38.612Z,6.47
2023-02-22T00:50:05.929Z,8.00
2023-02-22T00:52:33.076Z,5.93
2023-02-22T00:55:00.215Z,6.90
2023-02-22T00:57:27.275Z,7.78
2023-02-22T00:59:54.400Z,6.85
2023-02-22T01:02:21.540Z,6.35
2023-02-22T01:04:48.710Z,6.25
2023-02-22T01:07:16.026Z,7.75
2023-02-22T01:09:44.307Z,6.18
2023-02-22T01:12:13.381Z,7.47
2023-02-22T01:14:40.476Z,7.95
2023-02-22T01:17:07.661Z,7.47
2023-02-22T01:19:34.797Z,5.78
2023-02-22T01:22:01.909Z,8.15
2023-02-22T01:24:28.973Z,7.82
2023-02-22T01:26:56.112Z,7.72
2023-02-22T01:29:23.311Z,7.13
2023-02-22T01:31:54.612Z,6.93
2023-02-22T01:34:22.711Z,7.60
2023-02-22T01:36:50.088Z,6.78
2023-02-22T01:39:18.169Z,8.18
2023-02-22T01:41:46.536Z,7.45
2023-02-22T01:44:36.641Z,7.03
2023-02-22T01:47:04.891Z,7.82
2023-02-22T01:49:34.080Z,7.97
2023-02-22T01:52:03.791Z,7.03
2023-02-22T01:54:40.163Z,8.40
2023-02-22T01:57:17.618Z,7.70
2023-02-22T01:59:47.008Z,7.50
2023-02-22T02:02:15.293Z,6.78
2023-02-22T02:04:42.784Z,7.45
2023-02-22T02:07:12.282Z,8.95
2023-02-22T02:09:55.067Z,7.70
2023-02-22T02:12:23.337Z,8.23
2023-02-22T02:14:50.576Z,7.65
2023-02-22T02:17:19.021Z,8.77
2023-02-22T02:19:51.591Z,7.95
2023-02-22T02:22:18.703Z,8.27
2023-02-22T02:25:05.227Z,8.52
2023-02-22T02:27:47.427Z,9.73
2023-02-22T02:32:48.346Z,8.15
2023-02-22T02:35:24.307Z,7.88
2023-02-22T02:37:58.223Z,9.73
2023-02-22T02:40:30.086Z,8.43
2023-02-22T02:43:01.994Z,8.90
2023-02-22T02:45:36.274Z,8.93
2023-02-22T02:48:06.175Z,9.10
2023-02-22T02:50:36.090Z,9.65
2023-02-22T02:53:04.954Z,9.75
2023-02-22T02:55:32.309Z,10.57
2023-02-22T02:58:00.214Z,10.68
2023-02-22T03:00:30.757Z,10.07
2023-02-22T03:03:12.979Z,11.30
2023-02-22T03:08:25.715Z,11.80
2023-02-22T03:11:01.666Z,11.27
2023-02-22T03:13:28.759Z,12.48
2023-02-22T03:16:02.728Z,13.60
2023-02-22T03:18:29.857Z,12.98
2023-02-22T03:21:00.593Z,15.20
2023-02-22T03:23:37.435Z,14.52
2023-02-22T03:26:09.936Z,15.75
2023-02-22T03:28:41.023Z,16.70
2023-02-22T03:31:11.044Z,17.27
2023-02-22T03:33:41.596Z,17.70
2023-02-22T03:36:20.776Z,16.65
2023-02-22T03:38:48.977Z,17.50
2023-02-22T03:41:18.355Z,17.83
2023-02-22T03:43:50.427Z,17.77
2023-02-22T03:48:49.340Z,17.80
2023-02-22T03:51:17.431Z,18.30
2023-02-22T03:53:44.655Z,17.25
2023-02-22T03:56:14.125Z,19.58
2023-02-22T03:58:44.252Z,17.75
2023-02-22T04:01:12.007Z,17.98
2023-02-22T04:03:40.186Z,17.33
2023-02-22T04:06:07.499Z,19.65
2023-02-22T04:08:35.144Z,19.38
2023-02-22T04:11:02.242Z,18.42
2023-02-22T04:13:29.326Z,18.35
2023-02-22T04:15:56.497Z,19.42
2023-02-22T04:18:23.628Z,22.48
2023-02-22T04:20:51.669Z,21.08
2023-02-22T04:23:18.776Z,22.85
2023-02-22T04:25:45.872Z,20.92
2023-02-22T04:28:13.461Z,19.10
2023-02-22T04:30:40.607Z,23.88
2023-02-22T04:33:07.749Z,20.05
2023-02-22T04:35:35.667Z,21.35
2023-02-22T04:38:04.239Z,22.15
2023-02-22T04:40:31.700Z,20.95
2023-02-22T04:43:00.188Z,20.73
2023-02-22T04:45:27.546Z,21.38
2023-02-22T04:47:54.653Z,21.63
2023-02-22T04:50:21.757Z,21.05
2023-02-22T04:52:48.885Z,23.40
2023-02-22T04:55:16.663Z,22.88
2023-02-22T04:57:43.832Z,23.90
2023-02-22T05:00:11.197Z,22.73
2023-02-22T05:02:41.502Z,23.90
2023-02-22T05:05:08.738Z,22.73
2023-02-22T05:07:35.836Z,23.48
2023-02-22T05:10:02.951Z,24.48
2023-02-22T05:12:30.507Z,22.17
2023-02-22T05:14:57.551Z,24.27
2023-02-22T05:17:24.807Z,25.55
2023-02-22T05:19:51.895Z,24.85
2023-02-22T05:22:18.981Z,22.65
2023-02-22T05:24:46.037Z,25.50
2023-02-22T05:27:13.128Z,22.75
2023-02-22T05:29:40.632Z,22.23
2023-02-22T05:32:07.798Z,22.63
2023-02-22T05:34:35.027Z,23.38
2023-02-22T05:37:03.403Z,22.33
2023-02-22T05:39:30.864Z,23.23
2023-02-22T05:41:58.375Z,23.45
2023-02-22T05:44:25.587Z,23.83
2023-02-22T05:46:52.762Z,23.90
2023-02-22T05:49:19.895Z,25.23
2023-02-22T05:51:47.442Z,21.30
2023-02-22T05:54:14.507Z,23.75
2023-02-22T05:56:41.619Z,23.92
2023-02-22T05:59:08.684Z,20.65
2023-02-22T06:01:35.793Z,22.92
2023-02-22T06:04:03.159Z,22.30
2023-02-22T06:06:30.244Z,22.92
2023-02-22T06:08:57.347Z,22.90
2023-02-22T06:11:24.505Z,22.20
2023-02-22T06:13:52.589Z,23.50
2023-02-22T06:16:21.223Z,26.58
2023-02-22T06:18:48.553Z,24.13
2023-02-22T06:21:15.895Z,21.52
2023-02-22T06:23:43.128Z,23.35
2023-02-22T06:26:10.243Z,23.38
2023-02-22T06:28:37.414Z,24.63
2023-02-22T06:31:04.524Z,21.92
2023-02-22T06:33:31.695Z,23.20
2023-02-22T06:35:58.817Z,25.13
2023-02-22T06:38:27.625Z,23.20
2023-02-22T06:40:57.718Z,23.60
2023-02-22T06:43:25.719Z,22.95
2023-02-22T06:45:53.193Z,22.98
2023-02-22T06:48:20.382Z,23.92
2023-02-22T06:50:47.436Z,21.48
2023-02-22T06:53:14.541Z,22.65
2023-02-22T06:55:41.670Z,23.63
2023-02-22T06:58:08.808Z,21.90
2023-02-22T07:00:35.955Z,22.25
2023-02-22T07:03:04.671Z,25.77
2023-02-22T07:05:31.887Z,22.95
2023-02-22T07:08:08.328Z,26.13
2023-02-22T07:10:36.441Z,22.73
2023-02-22T07:13:04.377Z,24.23
2023-02-22T07:15:32.639Z,23.17
2023-02-22T07:17:59.791Z,25.40
2023-02-22T07:20:28.302Z,24.05
2023-02-22T07:22:55.386Z,23.58
2023-02-22T07:25:23.668Z,24.33
2023-02-22T07:27:52.439Z,22.05
2023-02-22T07:30:27.985Z,23.73
2023-02-22T07:32:55.734Z,20.35
2023-02-22T07:35:24.938Z,24.35
2023-02-22T07:37:54.074Z,19.92
2023-02-22T07:40:23.143Z,21.45
2023-02-22T07:43:05.889Z,20.10
2023-02-22T07:45:35.304Z,22.27
2023-02-22T07:48:04.356Z,20.58
2023-02-22T07:50:32.250Z,20.40
2023-02-22T07:53:02.863Z,21.63
2023-02-22T07:55:30.910Z,20.10
2023-02-22T07:57:59.371Z,19.02
2023-02-22T08:00:28.897Z,19.73
2023-02-22T08:02:56.195Z,18.90
2023-02-22T08:05:24.624Z,19.15
2023-02-22T08:07:51.776Z,19.70
2023-02-22T08:10:19.172Z,20.10
2023-02-22T08:12:46.269Z,19.00
2023-02-22T08:15:17.953Z,18.17
2023-02-22T08:17:45.173Z,18.35
2023-02-22T08:20:12.264Z,18.88
2023-02-22T08:22:40.203Z,20.90
2023-02-22T08:25:07.540Z,21.45
2023-02-22T08:27:34.721Z,19.55
2023-02-22T08:30:01.822Z,17.42
2023-02-22T08:32:29.128Z,19.35
2023-02-22T08:34:56.338Z,20.17
2023-02-22T08:37:23.463Z,21.23
2023-02-22T08:39:50.587Z,21.13
2023-02-22T08:42:17.647Z,18.65
2023-02-22T08:44:44.735Z,18.48
2023-02-22T08:47:11.960Z,20.70
2023-02-22T08:49:39.092Z,20.42
2023-02-22T08:52:06.446Z,20.17
2023-02-22T08:54:33.543Z,18.42
2023-02-22T08:57:00.650Z,20.70
2023-02-22T08:59:27.745Z,21.52
2023-02-22T09:01:55.414Z,21.75
2023-02-22T09:04:22.582Z,22.42
2023-02-22T09:06:51.796Z,21.77
2023-02-22T09:09:21.365Z,21.05
2023-02-22T09:11:53.102Z,19.88
2023-02-22T09:14:20.370Z,22.33
2023-02-22T09:16:47.499Z,23.60
2023-02-22T09:19:14.686Z,23.10
2023-02-22T09:21:41.904Z,21.10
2023-02-22T09:24:09.001Z,23.10
2023-02-22T09:26:39.360Z,24.85
2023-02-22T09:29:09.762Z,21.65
2023-02-22T09:31:40.144Z,23.48
2023-02-22T09:34:13.828Z,23.95
2023-02-22T09:36:41.923Z,22.02
2023-02-22T09:39:11.245Z,21.45
2023-02-22T09:41:58.739Z,22.73
2023-02-22T09:44:31.664Z,24.52
2023-02-22T09:46:59.378Z,24.40
2023-02-22T09:49:38.150Z,22.20
2023-02-22T09:52:22.682Z,23.58
2023-02-22T09:55:09.876Z,25.45
2023-02-22T09:57:41.026Z,22.50
2023-02-22T10:00:14.921Z,21.80
2023-02-22T10:02:50.228Z,33.83
2023-02-22T10:05:23.221Z,27.90
2023-02-22T10:07:57.709Z,25.63
2023-02-22T10:10:33.823Z,26.23
2023-02-22T10:13:00.935Z,28.60
2023-02-22T10:15:43.500Z,26.60
2023-02-22T10:18:28.726Z,28.42
2023-02-22T10:21:02.448Z,28.05
2023-02-22T10:23:55.989Z,27.08
2023-02-22T10:26:26.400Z,24.10
2023-02-22T10:28:55.358Z,27.02
2023-02-22T10:31:25.947Z,27.70
2023-02-22T10:33:59.247Z,27.85
2023-02-22T10:36:26.914Z,29.50
2023-02-22T10:38:55.978Z,27.25
2023-02-22T10:41:29.254Z,27.13
2023-02-22T10:43:56.551Z,25.63
2023-02-22T10:46:24.531Z,24.55
2023-02-22T10:48:53.627Z,26.80
2023-02-22T10:51:21.212Z,25.90
2023-02-22T10:53:57.002Z,24.50
2023-02-22T10:56:25.657Z,21.85
2023-02-22T10:58:55.527Z,24.55
2023-02-22T11:01:31.968Z,22.38
2023-02-22T11:03:59.049Z,25.13
2023-02-22T11:06:26.167Z,20.10
2023-02-22T11:09:04.344Z,20.08
2023-02-22T11:11:31.516Z,20.15
2023-02-22T11:14:00.609Z,18.95
2023-02-22T11:16:29.316Z,18.05
2023-02-22T11:19:01.123Z,18.77
2023-02-22T11:21:30.311Z,18.63
2023-02-22T11:24:08.484Z,16.05
2023-02-22T11:26:38.367Z,14.48
2023-02-22T11:29:10.924Z,15.43
2023-02-22T11:31:43.168Z,14.88
2023-02-22T11:34:25.971Z,18.05
2023-02-22T11:36:53.163Z,16.23
2023-02-22T11:39:35.188Z,13.50
2023-02-22T11:42:23.077Z,13.82
2023-02-22T11:44:50.672Z,16.77
2023-02-22T11:47:25.371Z,14.70
2023-02-22T11:49:53.572Z,15.70
2023-02-22T11:52:41.449Z,14.60
2023-02-22T11:55:32.768Z,15.63
2023-02-22T11:58:08.611Z,13.82
2023-02-22T12:00:47.617Z,14.88
2023-02-22T12:03:28.679Z,13.90
2023-02-22T12:06:02.010Z,12.75
2023-02-22T12:08:46.081Z,13.00
2023-02-22T12:11:33.318Z,14.10
2023-02-22T12:14:15.785Z,12.63
2023-02-22T12:16:55.882Z,12.18
2023-02-22T12:19:43.475Z,13.20
2023-02-22T12:22:21.781Z,12.23
2023-02-22T12:24:51.632Z,13.32
2023-02-22T12:27:27.606Z,13.07
2023-02-22T12:29:57.856Z,13.50
2023-02-22T12:32:30.565Z,12.88
2023-02-22T12:35:17.951Z,12.18
2023-02-22T12:38:04.706Z,13.52
2023-02-22T12:40:31.876Z,13.13
2023-02-22T12:43:09.464Z,11.45
2023-02-22T12:45:42.523Z,11.30
2023-02-22T12:48:18.236Z,11.90
2023-02-22T12:50:46.899Z,11.00
2023-02-22T12:53:27.739Z,11.75
2023-02-22T12:56:07.747Z,11.10
2023-02-22T12:58:40.268Z,10.40
2023-02-22T13:01:12.197Z,10.40
2023-02-22T13:06:14.838Z,10.68
2023-02-22T13:08:56.403Z,10.55
2023-02-22T13:11:34.746Z,11.63
2023-02-22T13:14:04.891Z,10.10
2023-02-22T13:16:54.297Z,10.95
2023-02-22T13:19:40.813Z,10.20
2023-02-22T13:22:10.886Z,10.27
2023-02-22T13:24:43.866Z,10.88
2023-02-22T13:27:14.789Z,8.90
2023-02-22T13:29:42.843Z,10.50
2023-02-22T13:32:36.297Z,10.13
2023-02-22T13:35:14.972Z,10.00
2023-02-22T13:37:51.795Z,10.32
2023-02-22T13:40:33.963Z,10.75
2023-02-22T13:43:16.193Z,9.80
2023-02-22T13:45:55.216Z,9.65
2023-02-22T13:48:22.302Z,10.38
2023-02-22T13:50:52.446Z,10.00
2023-02-22T13:53:23.572Z,11.70
2023-02-22T13:55:53.662Z,9.32
2023-02-22T13:58:21.060Z,10.77
2023-02-22T14:00:52.995Z,11.07
2023-02-22T14:06:00.841Z,9.98
2023-02-22T14:08:27.952Z,10.10
2023-02-22T14:10:56.383Z,10.85
2023-02-22T14:13:27.404Z,10.00
2023-02-22T14:16:00.613Z,11.23
2023-02-22T14:18:28.970Z,10.18
2023-02-22T14:21:09.237Z,10.20
2023-02-22T14:23:38.031Z,10.32
2023-02-22T14:26:12.943Z,9.48
2023-02-22T14:28:51.353Z,10.43
2023-02-22T14:31:35.055Z,10.25
2023-02-22T14:34:06.066Z,9.02
2023-02-22T14:36:35.923Z,10.23
2023-02-22T14:39:21.411Z,10.43
2023-02-22T14:42:03.395Z,10.77
2023-02-22T14:47:01.687Z,9.15
2023-02-22T14:49:31.042Z,10.10
2023-02-22T14:52:05.864Z,9.48
2023-02-22T14:54:39.714Z,9.23
2023-02-22T14:57:14.866Z,9.35
2023-02-22T14:59:48.149Z,10.02
2023-02-22T15:02:15.511Z,9.80
2023-02-22T15:04:43.952Z,9.30
2023-02-22T15:07:27.111Z,10.20
2023-02-22T15:10:06.534Z,10.50
2023-02-22T15:12:33.777Z,9.48
2023-02-22T15:15:22.037Z,9.90
2023-02-22T15:17:53.257Z,9.40
2023-02-22T15:20:21.081Z,10.88
2023-02-22T15:22:49.685Z,10.68
2023-02-22T15:25:16.850Z,12.32
2023-02-22T15:27:47.394Z,9.60
2023-02-22T15:30:23.666Z,10.82
2023-02-22T15:33:03.736Z,10.55
2023-02-22T15:35:33.409Z,10.43
2023-02-22T15:38:07.884Z,10.80
2023-02-22T15:40:35.635Z,11.50
2023-02-22T15:43:04.037Z,10.93
2023-02-22T15:45:32.401Z,10.93
2023-02-22T15:47:59.929Z,11.15
2023-02-22T15:50:34.325Z,11.35
2023-02-22T15:53:04.627Z,10.98
2023-02-22T15:55:31.678Z,9.82
2023-02-22T15:58:04.675Z,11.95
2023-02-22T16:00:36.501Z,10.65
2023-02-22T16:03:09.338Z,11.80
2023-02-22T16:05:47.047Z,10.65
2023-02-22T16:08:24.879Z,12.38
2023-02-22T16:11:13.499Z,10.45
2023-02-22T16:13:41.661Z,10.65
2023-02-22T16:16:20.650Z,11.20
2023-02-22T16:18:48.187Z,10.95
2023-02-22T16:21:23.711Z,11.57
2023-02-22T16:24:01.337Z,11.13
2023-02-22T16:26:34.923Z,12.52
2023-02-22T16:29:06.855Z,12.70
2023-02-22T16:34:02.521Z,12.20
2023-02-22T16:36:45.050Z,11.82
2023-02-22T16:39:14.694Z,13.00
2023-02-22T16:41:41.892Z,13.70
2023-02-22T16:44:12.724Z,11.73
2023-02-22T16:46:41.808Z,12.40
2023-02-22T16:49:12.458Z,14.10
2023-02-22T16:51:47.807Z,15.77
2023-02-22T16:54:15.849Z,14.43
2023-02-22T16:56:43.046Z,14.40
2023-02-22T16:59:14.683Z,13.82
2023-02-22T17:01:42.362Z,15.55
2023-02-22T17:04:20.767Z,14.23
2023-02-22T17:06:48.198Z,13.75
2023-02-22T17:09:15.781Z,15.25
2023-02-22T17:11:43.445Z,14.55
2023-02-22T17:14:11.388Z,14.30
2023-02-22T17:16:38.544Z,14.60
2023-02-22T17:19:09.812Z,14.77
2023-02-22T17:21:36.944Z,13.85
2023-02-22T17:24:04.057Z,13.70
2023-02-22T17:26:31.203Z,13.10
2023-02-22T17:28:58.546Z,13.57
2023-02-22T17:31:27.624Z,13.48
2023-02-22T17:33:55.261Z,13.15
2023-02-22T17:36:23.537Z,12.98
2023-02-22T17:38:50.724Z,12.32
2023-02-22T17:41:17.891Z,13.02
2023-02-22T17:43:45.078Z,14.38
2023-02-22T17:46:12.366Z,12.57
2023-02-22T17:48:39.685Z,13.63
2023-02-22T17:51:07.870Z,13.02
2023-02-22T17:53:35.288Z,12.57
2023-02-22T17:56:05.912Z,13.27
2023-02-22T17:58:33.187Z,12.70
2023-02-22T18:01:00.351Z,13.60
2023-02-22T18:03:29.084Z,13.20
2023-02-22T18:06:00.239Z,12.85
2023-02-22T18:08:33.238Z,12.65
2023-02-22T18:11:05.113Z,14.15
2023-02-22T18:13:32.269Z,12.25
2023-02-22T18:16:00.085Z,13.35
2023-02-22T18:18:27.383Z,12.98
2023-02-22T18:20:59.283Z,14.13
2023-02-22T18:26:09.589Z,11.88
2023-02-22T18:28:37.606Z,13.77
2023-02-22T18:31:08.767Z,14.98
2023-02-22T18:33:36.130Z,14.60
2023-02-22T18:36:03.328Z,13.90
2023-02-22T18:38:30.498Z,13.02
2023-02-22T18:41:05.803Z,14.20
2023-02-22T18:43:35.260Z,13.50
2023-02-22T18:46:15.553Z,12.23
2023-02-22T18:48:42.764Z,13.85
2023-02-22T18:51:10.863Z,13.32
2023-02-22T18:53:38.820Z,12.90
2023-02-22T18:56:10.015Z,13.35
2023-02-22T18:58:38.718Z,12.98
2023-02-22T19:01:06.755Z,11.63
2023-02-22T19:03:37.988Z,12.65
2023-02-22T19:06:08.735Z,12.88
2023-02-22T19:08:42.548Z,12.65
2023-02-22T19:11:17.700Z,12.45
2023-02-22T19:13:48.277Z,12.00
2023-02-22T19:16:16.816Z,11.95
2023-02-22T19:18:44.403Z,12.80
2023-02-22T19:21:18.107Z,11.55
2023-02-22T19:23:45.970Z,13.68
2023-02-22T19:26:14.233Z,11.77
2023-02-22T19:28:41.334Z,11.60
2023-02-22T19:31:15.781Z,11.77
2023-02-22T19:33:43.250Z,11.70
2023-02-22T19:36:11.122Z,12.32
2023-02-22T19:38:38.510Z,12.13
2023-02-22T19:41:10.344Z,11.65
2023-02-22T19:46:05.700Z,11.48
2023-02-22T19:48:32.846Z,11.05
2023-02-22T19:51:10.428Z,12.10
2023-02-22T19:53:41.283Z,14.82
2023-02-22T19:56:09.502Z,13.23
2023-02-22T19:58:40.489Z,14.02
2023-02-22T20:01:14.846Z,13.60
2023-02-22T20:03:42.381Z,12.52
2023-02-22T20:06:15.935Z,11.27
2023-02-22T20:08:43.027Z,11.10
2023-02-22T20:11:11.136Z,10.65
2023-02-22T20:13:38.997Z,11.63
2023-02-22T20:16:06.393Z,10.95
2023-02-22T20:18:33.546Z,11.05
2023-02-22T20:21:00.673Z,12.00
2023-02-22T20:23:27.767Z,10.40
2023-02-22T20:25:55.521Z,11.57
2023-02-22T20:28:23.472Z,11.43
2023-02-22T20:30:51.744Z,11.68
2023-02-22T20:33:19.706Z,11.52
2023-02-22T20:35:47.492Z,12.02
2023-02-22T20:38:15.314Z,11.35
2023-02-22T20:40:43.250Z,11.50
2023-02-22T20:43:10.583Z,10.98
2023-02-22T20:45:38.381Z,11.15
2023-02-22T20:48:05.699Z,10.80
2023-02-22T20:50:33.123Z,11.25
2023-02-22T20:53:00.174Z,11.82
2023-02-22T20:55:27.292Z,13.48
2023-02-22T20:57:54.391Z,12.48
2023-02-22T21:00:21.575Z,13.60
2023-02-22T21:02:48.764Z,13.00
2023-02-22T21:05:15.884Z,12.52
2023-02-22T21:07:43.172Z,12.18
2023-02-22T21:10:10.284Z,11.40
2023-02-22T21:12:37.427Z,11.23
2023-02-22T21:15:04.827Z,11.48
2023-02-22T21:17:31.874Z,12.15
2023-02-22T21:19:59.325Z,12.07
2023-02-22T21:22:26.482Z,11.88
2023-02-22T21:24:53.581Z,12.75
2023-02-22T21:27:20.797Z,12.00
2023-02-22T21:29:47.894Z,11.20
2023-02-22T21:32:15.237Z,12.10
2023-02-22T21:34:42.463Z,13.20
2023-02-22T21:37:09.522Z,12.93
2023-02-22T21:39:36.626Z,12.18
2023-02-22T21:42:07.048Z,12.00
2023-02-22T21:44:34.194Z,12.55
2023-02-22T21:47:01.351Z,11.93
2023-02-22T21:49:28.854Z,11.68
2023-02-22T21:51:56.426Z,12.23
2023-02-22T21:54:23.774Z,12.63
2023-02-22T21:56:51.036Z,12.98
2023-02-22T21:59:20.108Z,12.35
2023-02-22T22:01:56.648Z,13.57
2023-02-22T22:04:27.461Z,15.38
2023-02-22T22:06:56.640Z,14.27
2023-02-22T22:09:24.503Z,14.00
2023-02-22T22:11:58.295Z,14.85
2023-02-22T22:14:26.444Z,18.45
2023-02-22T22:16:55.827Z,15.82
2023-02-22T22:19:23.022Z,17.58
2023-02-22T22:21:53.348Z,17.73
2023-02-22T22:24:21.304Z,16.90
2023-02-22T22:26:54.505Z,17.88
2023-02-22T22:29:23.488Z,17.83
2023-02-22T22:31:51.229Z,17.23
2023-02-22T22:34:19.422Z,17.52
2023-02-22T22:36:46.577Z,19.98
2023-02-22T22:39:13.621Z,17.25
2023-02-22T22:41:41.418Z,18.75
2023-02-22T22:44:09.828Z,18.77
2023-02-22T22:46:40.955Z,18.52
2023-02-22T22:49:12.478Z,19.40
2023-02-22T22:51:43.233Z,18.70
2023-02-22T22:54:10.745Z,18.95
2023-02-22T22:56:38.665Z,18.88
2023-02-22T22:59:10.086Z,19.77
2023-02-22T23:01:39.234Z,19.00
2023-02-22T23:04:09.541Z,20.27
2023-02-22T23:06:41.311Z,20.42
2023-02-22T23:09:14.565Z,18.75
2023-02-22T23:11:44.397Z,20.45
2023-02-22T23:14:13.264Z,20.05
2023-02-22T23:16:40.427Z,18.70
2023-02-22T23:19:10.777Z,21.65
2023-02-22T23:21:38.755Z,19.25
2023-02-22T23:24:06.773Z,19.67
2023-02-22T23:26:34.620Z,19.83
2023-02-22T23:29:02.037Z,21.42
2023-02-22T23:31:29.702Z,19.27
2023-02-22T23:33:58.730Z,19.60
2023-02-22T23:36:26.492Z,19.10
2023-02-22T23:38:54.331Z,20.42
2023-02-22T23:41:24.936Z,20.08
2023-02-22T23:43:52.085Z,20.42
2023-02-22T23:46:19.690Z,19.63
2023-02-22T23:48:51.410Z,18.42
2023-02-22T23:51:20.668Z,19.25
2023-02-22T23:53:49.219Z,18.67
2023-02-22T23:56:17.856Z,19.95
2023-02-22T23:58:50.147Z,20.55
